createdAt,value
2018-08-03T00:01:30.536Z,22.90
2018-08-03T00:04:13.772Z,22.90
2018-08-03T00:06:55.122Z,22.90
2018-08-03T00:09:36.552Z,22.80
2018-08-03T00:12:18.087Z,22.80
2018-08-03T00:14:59.440Z,22.70
2018-08-03T00:17:41.607Z,22.70
2018-08-03T00:20:23.068Z,22.70
2018-08-03T00:23:04.555Z,22.60
2018-08-03T00:25:45.876Z,22.50
2018-08-03T00:28:28.235Z,22.50
2018-08-03T00:31:10.923Z,22.40
2018-08-03T00:33:52.388Z,22.40
2018-08-03T00:36:33.738Z,22.30
2018-08-03T00:39:15.644Z,22.30
2018-08-03T00:41:56.987Z,22.30
2018-08-03T00:44:38.216Z,22.30
2018-08-03T00:47:20.240Z,22.30
2018-08-03T00:50:01.599Z,22.20
2018-08-03T00:52:43.747Z,22.20
2018-08-03T00:55:25.351Z,22.20
2018-08-03T00:58:07.725Z,22.20
2018-08-03T01:00:49.488Z,22.20
2018-08-03T01:03:30.871Z,22.20
2018-08-03T01:06:14.116Z,22.20
2018-08-03T01:08:55.434Z,22.10
2018-08-03T01:11:36.999Z,22.10
2018-08-03T01:14:18.392Z,22.10
2018-08-03T01:16:59.896Z,22.10
2018-08-03T01:19:42.963Z,22.10
2018-08-03T01:22:24.342Z,22.10
2018-08-03T01:25:06.533Z,22.10
2018-08-03T01:27:47.980Z,22.10
2018-08-03T01:30:29.336Z,22.10
2018-08-03T01:33:11.519Z,22.10
2018-08-03T01:35:52.876Z,22.10
2018-08-03T01:38:34.188Z,22.10
2018-08-03T01:41:15.659Z,22.10
2018-08-03T01:43:57.540Z,22.10
2018-08-03T01:46:40.227Z,22.00
2018-08-03T01:49:22.561Z,22.00
2018-08-03T01:52:03.911Z,22.00
2018-08-03T01:54:45.608Z,22.00
2018-08-03T01:57:27.095Z,22.00
2018-08-03T02:00:08.493Z,21.90
2018-08-03T02:02:49.908Z,21.90
2018-08-03T02:05:31.349Z,21.90
2018-08-03T02:08:14.116Z,21.90
2018-08-03T02:10:55.808Z,21.70
2018-08-03T02:13:37.018Z,21.70
2018-08-03T02:16:18.398Z,21.70
2018-08-03T02:45:51.285Z,21.60
2018-08-03T02:48:32.823Z,21.60
2018-08-03T02:51:15.051Z,21.60
2018-08-03T02:53:57.060Z,21.50
2018-08-03T02:56:39.373Z,21.50
2018-08-03T02:59:20.775Z,21.50
2018-08-03T03:02:02.151Z,21.40
2018-08-03T03:04:44.461Z,21.40
2018-08-03T03:07:26.224Z,21.40
2018-08-03T03:10:07.536Z,21.40
2018-08-03T03:12:49.056Z,21.30
2018-08-03T03:15:30.377Z,21.40
2018-08-03T03:20:55.574Z,21.30
2018-08-03T03:23:36.915Z,21.30
2018-08-03T03:26:19.103Z,21.20
2018-08-03T03:29:00.935Z,21.20
2018-08-03T03:31:43.195Z,21.20
2018-08-03T03:34:24.396Z,21.20
2018-08-03T03:37:05.898Z,21.20
2018-08-03T03:39:47.468Z,21.20
2018-08-03T03:42:28.797Z,21.20
2018-08-03T03:45:12.297Z,21.20
2018-08-03T03:47:53.766Z,21.30
2018-08-03T03:50:35.203Z,21.30
2018-08-03T03:53:17.175Z,21.30
2018-08-03T03:55:58.389Z,21.20
2018-08-03T03:58:40.952Z,21.20
2018-08-03T04:01:22.307Z,21.20
2018-08-03T04:04:03.677Z,21.20
2018-08-03T04:06:45.150Z,21.30
2018-08-03T04:09:26.501Z,21.30
2018-08-03T04:12:08.034Z,21.20
2018-08-03T04:14:49.225Z,21.20
2018-08-03T04:17:30.681Z,21.30
2018-08-03T04:20:13.304Z,21.20
2018-08-03T04:22:54.813Z,21.30
2018-08-03T04:25:36.049Z,21.30
2018-08-03T04:28:17.560Z,21.40
2018-08-03T04:30:58.920Z,21.40
2018-08-03T04:33:42.452Z,21.40
2018-08-03T04:36:23.957Z,21.40
2018-08-03T04:39:07.039Z,21.40
2018-08-03T04:41:48.895Z,21.50
2018-08-03T04:44:30.255Z,21.50
2018-08-03T04:47:13.167Z,21.50
2018-08-03T04:49:54.513Z,21.50
2018-08-03T04:52:35.988Z,21.50
2018-08-03T04:55:17.299Z,21.50
2018-08-03T04:57:58.696Z,21.50
2018-08-03T05:00:40.932Z,21.50
2018-08-03T05:03:22.236Z,21.50
2018-08-03T05:06:03.676Z,21.60
2018-08-03T05:08:44.968Z,21.60
2018-08-03T05:11:26.456Z,21.60
2018-08-03T05:14:07.841Z,21.70
2018-08-03T05:16:49.437Z,21.70
2018-08-03T05:19:30.816Z,21.80
2018-08-03T05:22:13.514Z,21.80
2018-08-03T05:24:54.931Z,21.90
2018-08-03T05:27:36.717Z,21.90
2018-08-03T05:30:19.232Z,22.00
2018-08-03T05:33:00.712Z,22.10
2018-08-03T05:38:24.292Z,22.20
2018-08-03T05:41:05.717Z,22.20
2018-08-03T05:43:49.041Z,22.30
2018-08-03T05:46:30.377Z,22.40
2018-08-03T05:49:13.468Z,22.50
2018-08-03T05:52:10.168Z,22.60
2018-08-03T05:54:52.231Z,22.70
2018-08-03T05:57:34.373Z,22.70
2018-08-03T06:00:16.011Z,22.80
2018-08-03T06:02:58.174Z,22.80
2018-08-03T06:05:40.117Z,22.80
2018-08-03T06:08:21.853Z,22.90
2018-08-03T06:11:03.142Z,23.00
2018-08-03T06:13:45.017Z,23.00
2018-08-03T06:16:26.328Z,23.10
2018-08-03T06:19:07.651Z,23.10
2018-08-03T06:21:49.070Z,23.20
2018-08-03T06:24:31.070Z,23.30
2018-08-03T06:27:13.546Z,23.40
2018-08-03T06:29:54.907Z,23.50
2018-08-03T06:32:36.648Z,23.60
2018-08-03T06:35:18.980Z,23.70
2018-08-03T06:38:00.308Z,23.70
2018-08-03T06:40:43.334Z,23.80
2018-08-03T06:43:25.501Z,23.90
2018-08-03T06:46:06.919Z,23.90
2018-08-03T06:48:48.980Z,24.00
2018-08-03T06:51:30.433Z,24.00
2018-08-03T06:54:13.444Z,24.10
2018-08-03T06:56:54.793Z,24.20
2018-08-03T06:59:36.171Z,24.40
2018-08-03T07:02:17.528Z,24.50
2018-08-03T07:04:58.954Z,24.70
2018-08-03T07:07:42.268Z,24.80
2018-08-03T07:10:23.616Z,25.00
2018-08-03T07:13:04.811Z,25.30
2018-08-03T07:15:46.220Z,25.50
2018-08-03T07:18:28.085Z,25.80
2018-08-03T07:21:12.367Z,26.10
2018-08-03T07:23:54.027Z,26.30
2018-08-03T07:26:35.559Z,26.60
2018-08-03T07:29:17.064Z,26.90
2018-08-03T07:31:58.567Z,27.30
2018-08-03T07:34:40.828Z,27.60
2018-08-03T07:37:22.156Z,27.80
2018-08-03T07:40:03.654Z,28.20
2018-08-03T07:42:46.165Z,28.50
2018-08-03T07:45:27.597Z,28.60
2018-08-03T07:48:10.381Z,28.80
2018-08-03T07:50:52.171Z,29.10
2018-08-03T07:53:35.444Z,29.20
2018-08-03T07:56:16.800Z,29.40
2018-08-03T07:58:58.115Z,29.60
2018-08-03T08:01:40.385Z,29.70
2018-08-03T08:04:21.964Z,29.90
2018-08-03T08:07:03.268Z,30.10
2018-08-03T08:09:45.325Z,30.30
2018-08-03T08:12:26.660Z,30.40
2018-08-03T08:15:08.122Z,30.40
2018-08-03T08:17:49.462Z,30.50
2018-08-03T08:20:30.792Z,30.60
2018-08-03T08:23:13.556Z,30.60
2018-08-03T08:25:55.029Z,30.70
2018-08-03T08:28:36.422Z,30.80
2018-08-03T08:31:18.851Z,30.90
2018-08-03T08:34:00.500Z,30.80
2018-08-03T08:36:44.360Z,30.50
2018-08-03T08:39:25.826Z,30.40
2018-08-03T08:42:07.608Z,30.20
2018-08-03T08:44:49.602Z,29.90
2018-08-03T08:47:30.960Z,29.70
2018-08-03T08:50:13.432Z,29.50
2018-08-03T08:52:54.848Z,29.30
2018-08-03T08:55:36.136Z,29.50
2018-08-03T08:58:17.607Z,29.70
2018-08-03T09:00:59.063Z,29.50
2018-08-03T09:03:42.625Z,29.50
2018-08-03T09:06:24.014Z,29.30
2018-08-03T09:09:09.811Z,29.20
2018-08-03T09:11:52.163Z,29.20
2018-08-03T09:14:33.563Z,29.10
2018-08-03T09:17:15.132Z,29.30
2018-08-03T09:19:56.408Z,29.10
2018-08-03T09:22:37.842Z,29.30
2018-08-03T09:25:19.364Z,29.20
2018-08-03T09:28:00.643Z,29.20
2018-08-03T09:30:43.397Z,29.20
2018-08-03T09:33:24.722Z,29.20
2018-08-03T09:36:06.120Z,29.10
2018-08-03T09:38:50.127Z,29.10
2018-08-03T09:41:31.721Z,29.00
2018-08-03T09:44:14.164Z,28.90
2018-08-03T09:46:55.738Z,28.80
2018-08-03T09:52:19.237Z,28.50
2018-08-03T09:57:43.303Z,28.20
2018-08-03T10:00:29.697Z,28.10
2018-08-03T10:03:13.319Z,28.10
2018-08-03T10:05:54.732Z,28.20
2018-08-03T10:08:36.615Z,28.20
2018-08-03T10:11:18.960Z,28.20
2018-08-03T10:14:00.423Z,28.20
2018-08-03T10:16:44.295Z,28.10
2018-08-03T10:19:25.741Z,28.20
2018-08-03T10:22:07.134Z,28.60
2018-08-03T10:24:49.266Z,28.60
2018-08-03T10:27:30.537Z,28.30
2018-08-03T10:30:13.509Z,28.20
2018-08-03T10:32:54.931Z,28.30
2018-08-03T10:35:36.222Z,28.50
2018-08-03T10:38:17.509Z,28.60
2018-08-03T10:40:58.904Z,28.70
2018-08-03T10:43:42.331Z,28.70
2018-08-03T10:46:23.872Z,28.70
2018-08-03T10:49:05.497Z,28.70
2018-08-03T10:51:46.883Z,28.50
2018-08-03T10:54:28.384Z,28.30
2018-08-03T10:57:12.396Z,28.10
2018-08-03T10:59:53.763Z,28.00
2018-08-03T11:02:35.380Z,27.90
2018-08-03T11:05:16.744Z,27.80
2018-08-03T11:07:58.221Z,27.80
2018-08-03T11:10:40.712Z,27.90
2018-08-03T11:13:22.340Z,28.10
2018-08-03T11:16:03.679Z,28.20
2018-08-03T11:18:45.505Z,28.10
2018-08-03T11:21:27.054Z,28.20
2018-08-03T11:24:09.905Z,28.10
2018-08-03T11:26:52.235Z,28.20
2018-08-03T11:29:33.647Z,28.30
2018-08-03T11:32:15.080Z,28.20
2018-08-03T11:34:56.708Z,28.10
2018-08-03T11:37:39.781Z,28.20
2018-08-03T11:40:22.422Z,28.20
2018-08-03T11:43:04.030Z,28.20
2018-08-03T11:45:45.424Z,28.10
2018-08-03T11:48:27.012Z,28.20
2018-08-03T11:51:09.738Z,28.40
2018-08-03T11:53:52.118Z,28.40
2018-08-03T11:56:34.108Z,28.30
2018-08-03T11:59:16.381Z,28.50
2018-08-03T12:01:58.883Z,28.50
2018-08-03T12:04:42.391Z,28.60
2018-08-03T12:07:23.741Z,28.60
2018-08-03T12:10:05.057Z,28.70
2018-08-03T12:12:46.757Z,28.70
2018-08-03T12:15:28.230Z,28.70
2018-08-03T12:18:13.791Z,28.80
2018-08-03T12:20:55.058Z,28.60
2018-08-03T12:23:36.583Z,28.50
2018-08-03T12:26:19.149Z,28.60
2018-08-03T12:29:00.439Z,28.60
2018-08-03T12:31:44.115Z,28.50
2018-08-03T12:34:25.562Z,28.40
2018-08-03T12:40:50.716Z,28.30
2018-08-03T12:43:32.016Z,28.50
2018-08-03T12:46:14.628Z,28.60
2018-08-03T12:48:56.102Z,28.40
2018-08-03T12:51:37.687Z,28.40
2018-08-03T12:54:19.345Z,28.20
2018-08-03T12:57:00.772Z,28.20
2018-08-03T12:59:44.014Z,28.30
2018-08-03T13:02:25.434Z,28.30
2018-08-03T13:05:07.209Z,28.30
2018-08-03T13:07:49.637Z,28.50
2018-08-03T13:10:31.276Z,28.50
2018-08-03T13:13:13.784Z,28.50
2018-08-03T13:15:55.124Z,28.40
2018-08-03T13:18:36.673Z,28.50
2018-08-03T13:21:36.957Z,28.50
2018-08-03T13:24:19.291Z,28.60
2018-08-03T13:27:00.728Z,28.70
2018-08-03T13:29:43.527Z,28.60
2018-08-03T13:32:24.909Z,28.70
2018-08-03T13:35:06.924Z,28.70
2018-08-03T13:37:49.674Z,28.70
2018-08-03T13:40:31.172Z,28.50
2018-08-03T13:43:14.084Z,28.50
2018-08-03T13:45:55.462Z,28.50
2018-08-03T13:48:36.885Z,28.50
2018-08-03T13:51:19.981Z,28.60
2018-08-03T13:54:01.471Z,28.70
2018-08-03T13:56:44.108Z,28.70
2018-08-03T13:59:25.580Z,28.60
2018-08-03T14:02:26.083Z,28.50
2018-08-03T14:05:09.586Z,28.50
2018-08-03T14:07:51.020Z,28.40
2018-08-03T14:10:32.262Z,28.60
2018-08-03T14:13:14.740Z,28.50
2018-08-03T14:15:56.131Z,28.50
2018-08-03T14:18:37.540Z,28.40
2018-08-03T14:21:19.353Z,28.50
2018-08-03T14:24:00.759Z,28.60
2018-08-03T14:26:43.620Z,28.70
2018-08-03T14:29:25.137Z,28.70
2018-08-03T14:32:06.851Z,28.80
2018-08-03T14:34:49.405Z,28.80
2018-08-03T14:37:30.861Z,28.80
2018-08-03T14:40:14.172Z,28.90
2018-08-03T14:42:55.806Z,28.90
2018-08-03T14:45:37.120Z,29.00
2018-08-03T14:48:19.654Z,29.10
2018-08-03T14:51:01.027Z,29.20
2018-08-03T14:53:43.477Z,29.20
2018-08-03T14:56:25.477Z,29.20
2018-08-03T14:59:06.982Z,29.00
2018-08-03T15:01:49.415Z,28.80
2018-08-03T15:04:32.733Z,28.70
2018-08-03T15:07:14.728Z,28.70
2018-08-03T15:09:55.929Z,28.80
2018-08-03T15:12:37.824Z,28.80
2018-08-03T15:15:20.393Z,28.70
2018-08-03T15:18:04.291Z,28.70
2018-08-03T15:20:46.388Z,28.70
2018-08-03T15:23:28.723Z,28.70
2018-08-03T15:26:12.702Z,28.70
2018-08-03T15:28:54.448Z,28.70
2018-08-03T15:31:35.889Z,28.70
2018-08-03T15:34:17.335Z,28.70
2018-08-03T15:36:58.834Z,28.70
2018-08-03T15:39:42.853Z,28.70
2018-08-03T15:42:24.294Z,28.80
2018-08-03T15:45:07.584Z,28.90
2018-08-03T15:47:49.461Z,28.80
2018-08-03T15:50:30.834Z,28.70
2018-08-03T15:53:13.594Z,28.70
2018-08-03T15:55:55.184Z,28.70
2018-08-03T15:58:36.721Z,28.60
2018-08-03T16:01:18.028Z,28.40
2018-08-03T16:03:59.508Z,28.30
2018-08-03T16:06:42.668Z,28.30
2018-08-03T16:09:24.364Z,28.40
2018-08-03T16:12:06.811Z,28.50
2018-08-03T16:14:48.725Z,28.50
2018-08-03T16:17:30.624Z,28.40
2018-08-03T16:20:14.095Z,28.40
2018-08-03T16:22:56.049Z,28.30
2018-08-03T16:25:37.523Z,28.40
2018-08-03T16:28:20.148Z,28.30
2018-08-03T16:31:02.201Z,28.30
2018-08-03T16:33:44.783Z,28.30
2018-08-03T16:36:26.311Z,28.30
2018-08-03T16:41:51.645Z,28.20
2018-08-03T16:44:32.959Z,28.20
2018-08-03T16:47:15.212Z,28.10
2018-08-03T16:49:56.713Z,28.10
2018-08-03T16:52:38.681Z,28.10
2018-08-03T16:55:20.671Z,28.00
2018-08-03T16:58:03.985Z,28.10
2018-08-03T17:00:46.196Z,28.00
2018-08-03T17:03:27.998Z,28.00
2018-08-03T17:06:10.967Z,28.00
2018-08-03T17:08:53.673Z,27.90
2018-08-03T17:11:35.629Z,28.00
2018-08-03T17:14:17.101Z,27.90
2018-08-03T17:16:58.574Z,27.80
2018-08-03T17:19:40.499Z,27.80
2018-08-03T17:22:22.016Z,27.80
2018-08-03T17:25:03.755Z,27.80
2018-08-03T17:27:46.906Z,27.70
2018-08-03T17:30:28.590Z,27.70
2018-08-03T17:33:10.589Z,27.70
2018-08-03T17:35:52.161Z,27.70
2018-08-03T17:38:33.571Z,27.60
2018-08-03T17:41:16.439Z,27.60
2018-08-03T17:43:57.851Z,27.50
2018-08-03T17:46:40.791Z,27.50
2018-08-03T17:49:23.556Z,27.40
2018-08-03T17:52:05.695Z,27.40
2018-08-03T17:54:47.112Z,27.30
2018-08-03T17:57:28.556Z,27.30
2018-08-03T18:00:10.924Z,27.20
2018-08-03T18:02:52.492Z,27.20
2018-08-03T18:05:34.555Z,27.10
2018-08-03T18:08:18.677Z,27.00
2018-08-03T18:11:00.162Z,26.90
2018-08-03T18:13:42.381Z,26.80
2018-08-03T18:16:24.183Z,26.70
2018-08-03T18:19:06.120Z,26.70
2018-08-03T18:21:47.731Z,26.60
2018-08-03T18:24:29.153Z,26.50
2018-08-03T18:27:12.148Z,26.40
2018-08-03T18:29:53.751Z,26.30
2018-08-03T18:32:35.145Z,26.20
2018-08-03T18:35:16.736Z,26.20
2018-08-03T18:37:58.447Z,26.10
2018-08-03T18:40:41.660Z,26.00
2018-08-03T18:43:25.588Z,25.90
2018-08-03T18:46:07.687Z,25.90
2018-08-03T18:48:49.031Z,25.80
2018-08-03T18:51:30.431Z,25.70
2018-08-03T18:54:12.659Z,25.70
2018-08-03T18:56:54.131Z,25.60
2018-08-03T18:59:35.905Z,25.60
2018-08-03T19:02:17.603Z,25.50
2018-08-03T19:04:59.142Z,25.50
2018-08-03T19:07:42.061Z,25.40
2018-08-03T19:10:24.088Z,25.40
2018-08-03T19:13:05.618Z,25.30
2018-08-03T19:15:52.316Z,25.20
2018-08-03T19:18:34.115Z,25.20
2018-08-03T19:21:16.836Z,25.00
2018-08-03T19:23:58.426Z,24.80
2018-08-03T19:26:41.059Z,24.70
2018-08-03T19:29:22.434Z,24.70
2018-08-03T19:32:04.133Z,24.70
2018-08-03T19:34:46.920Z,24.70
2018-08-03T19:37:28.523Z,24.60
2018-08-03T19:40:11.311Z,24.50
2018-08-03T19:42:54.618Z,24.40
2018-08-03T19:45:36.452Z,24.30
2018-08-03T19:48:17.981Z,24.30
2018-08-03T19:50:59.463Z,24.20
2018-08-03T19:53:42.259Z,24.10
2018-08-03T19:56:23.893Z,24.00
2018-08-03T19:59:05.409Z,23.90
2018-08-03T20:01:46.944Z,23.80
2018-08-03T20:04:28.364Z,23.80
2018-08-03T20:07:11.207Z,23.70
2018-08-03T20:09:53.860Z,23.70
2018-08-03T20:12:35.232Z,23.60
2018-08-03T20:15:16.687Z,23.50
2018-08-03T20:17:58.258Z,23.40
2018-08-03T20:20:41.004Z,23.40
2018-08-03T20:23:22.410Z,23.30
2018-08-03T20:26:03.858Z,23.30
2018-08-03T20:28:46.411Z,23.30
2018-08-03T20:31:27.782Z,23.20
2018-08-03T20:34:09.153Z,23.10
2018-08-03T20:36:50.880Z,23.10
2018-08-03T20:39:32.265Z,23.10
2018-08-03T20:42:15.539Z,23.10
2018-08-03T20:44:57.058Z,23.00
2018-08-03T20:47:38.546Z,23.00
2018-08-03T20:50:21.063Z,23.00
2018-08-03T20:53:02.388Z,23.00
2018-08-03T20:55:45.062Z,22.90
2018-08-03T20:58:26.579Z,23.00
2018-08-03T21:01:08.020Z,23.00
2018-08-03T21:03:49.776Z,23.00
2018-08-03T21:06:31.244Z,23.00
2018-08-03T21:09:14.895Z,23.00
2018-08-03T21:11:56.220Z,23.00
2018-08-03T21:14:37.600Z,23.00
2018-08-03T21:17:18.963Z,23.00
2018-08-03T21:20:00.304Z,22.90
2018-08-03T21:22:42.739Z,22.90
2018-08-03T21:25:23.969Z,22.90
2018-08-03T21:28:05.278Z,22.80
2018-08-03T21:30:47.234Z,22.80
2018-08-03T21:33:28.625Z,22.80
2018-08-03T21:36:11.092Z,22.80
2018-08-03T21:38:52.484Z,22.80
2018-08-03T21:41:33.841Z,22.80
2018-08-03T21:44:17.049Z,22.80
2018-08-03T21:46:58.516Z,22.80
2018-08-03T21:49:41.097Z,22.70
2018-08-03T21:52:22.596Z,22.70
2018-08-03T21:55:04.045Z,22.70
2018-08-03T21:57:46.535Z,22.70
2018-08-03T22:00:27.772Z,22.70
2018-08-03T22:03:09.120Z,22.70
2018-08-03T22:05:50.639Z,22.70
2018-08-03T22:08:32.004Z,22.60
2018-08-03T22:11:14.894Z,22.50
2018-08-03T22:13:57.203Z,22.60
2018-08-03T22:16:38.572Z,22.60
2018-08-03T22:19:20.900Z,22.70
2018-08-03T22:22:02.253Z,22.70
2018-08-03T22:24:45.108Z,22.70
2018-08-03T22:27:26.772Z,22.70
2018-08-03T22:30:08.357Z,22.70
2018-08-03T22:32:51.277Z,22.70
2018-08-03T22:35:32.747Z,22.70
2018-08-03T22:38:14.924Z,22.70
2018-08-03T22:40:56.231Z,22.70
2018-08-03T22:43:37.697Z,22.60
2018-08-03T22:49:00.013Z,22.60
2018-08-03T22:51:44.170Z,22.70
2018-08-03T22:54:25.485Z,22.70
2018-08-03T22:57:06.844Z,22.50
2018-08-03T22:59:48.228Z,22.60
2018-08-03T23:02:30.074Z,22.50
2018-08-03T23:05:12.601Z,22.40
2018-08-03T23:07:54.012Z,22.40
2018-08-03T23:10:35.379Z,22.30
2018-08-03T23:13:16.697Z,22.30
2018-08-03T23:15:58.078Z,22.20
2018-08-03T23:18:39.380Z,22.20
2018-08-03T23:21:20.832Z,22.20
2018-08-03T23:24:02.233Z,22.20
2018-08-03T23:26:45.160Z,22.10
2018-08-03T23:29:27.005Z,22.10
2018-08-03T23:32:08.340Z,22.10
2018-08-03T23:34:50.672Z,22.10
2018-08-03T23:37:32.148Z,22.10
2018-08-03T23:40:14.852Z,22.10
2018-08-03T23:42:56.639Z,22.10
2018-08-03T23:45:38.418Z,22.10
2018-08-03T23:48:20.743Z,22.00
2018-08-03T23:51:02.041Z,21.90
2018-08-03T23:53:45.033Z,21.80
2018-08-03T23:56:26.367Z,21.80
2018-08-03T23:59:07.734Z,21.70
